www.cux-wetter.de
Wetterdaten: Montag, 22.04.2013
Datum Zeit Temp. A. Feuchte A. Luftdruck Regen Wind Richtung Richtung Sonnenschein Solar Taupunkt Windchill Windben
22.04.2013 00:00 11,1 C 64 % 1014,5 hPa 0,0 l/m 7,6 km/h (2 Bft) SO 140 0 min 0 W/m 4,6 C 10,3 C 7,6 km/h (2 Bft)
22.04.2013 00:15 11,0 C 64 % 1014,5 hPa 0,0 l/m 7,8 km/h (2 Bft) SO 130 0 min 0 W/m 4,5 C 10,0 C 7,8 km/h (2 Bft)
22.04.2013 00:30 11,0 C 64 % 1013,5 hPa 0,0 l/m 7,8 km/h (2 Bft) SO 135 0 min 0 W/m 4,5 C 10,0 C 7,8 km/h (2 Bft)
22.04.2013 00:45 10,9 C 64 % 1013,5 hPa 0,0 l/m 7,0 km/h (2 Bft) SO 135 0 min 0 W/m 4,4 C 10,5 C 7,0 km/h (2 Bft)
22.04.2013 01:00 10,9 C 64 % 1013,5 hPa 0,0 l/m 10,1 km/h (2 Bft) S-SO 150 0 min 0 W/m 4,4 C 8,5 C 10,1 km/h (2 Bft)
22.04.2013 01:15 10,8 C 64 % 1013,5 hPa 0,0 l/m 6,1 km/h (2 Bft) SO 130 0 min 0 W/m 4,3 C 10,8 C 6,1 km/h (2 Bft)
22.04.2013 01:30 10,8 C 65 % 1013,5 hPa 0,0 l/m 6,7 km/h (2 Bft) O-SO 120 0 min 0 W/m 4,5 C 10,6 C 6,7 km/h (2 Bft)
22.04.2013 01:45 10,8 C 65 % 1013,5 hPa 0,0 l/m 7,2 km/h (2 Bft) SO 135 0 min 0 W/m 4,5 C 10,2 C 7,2 km/h (2 Bft)
22.04.2013 02:00 10,8 C 66 % 1013,5 hPa 0,0 l/m 6,6 km/h (2 Bft) SO 125 0 min 0 W/m 4,7 C 10,7 C 6,6 km/h (2 Bft)
22.04.2013 02:15 10,8 C 66 % 1013,5 hPa 0,0 l/m 5,7 km/h (2 Bft) S-SO 150 0 min 0 W/m 4,7 C 10,8 C 5,7 km/h (2 Bft)
22.04.2013 02:30 10,7 C 66 % 1012,5 hPa 0,0 l/m 6,9 km/h (2 Bft) S-SO 155 0 min 0 W/m 4,6 C 10,4 C 6,9 km/h (2 Bft)
22.04.2013 02:45 10,7 C 66 % 1012,5 hPa 0,0 l/m 5,2 km/h (1 Bft) S-SO 165 0 min 0 W/m 4,6 C 10,7 C 5,2 km/h (1 Bft)
22.04.2013 03:00 10,7 C 66 % 1012,5 hPa 0,0 l/m 5,2 km/h (1 Bft) S 180 0 min 0 W/m 4,6 C 10,7 C 5,2 km/h (1 Bft)
22.04.2013 03:15 10,7 C 66 % 1012,5 hPa 0,0 l/m 8,6 km/h (2 Bft) S-SO 165 0 min 0 W/m 4,6 C 9,2 C 8,6 km/h (2 Bft)
22.04.2013 03:30 10,6 C 66 % 1012,5 hPa 0,0 l/m 5,7 km/h (2 Bft) S-SO 165 0 min 0 W/m 4,5 C 10,6 C 5,7 km/h (2 Bft)
22.04.2013 03:45 10,6 C 66 % 1012,5 hPa 0,0 l/m 7,5 km/h (2 Bft) S 170 0 min 0 W/m 4,5 C 9,8 C 7,5 km/h (2 Bft)
22.04.2013 04:00 10,6 C 67 % 1012,5 hPa 0,0 l/m 7,4 km/h (2 Bft) S 185 0 min 0 W/m 4,7 C 9,9 C 7,4 km/h (2 Bft)
22.04.2013 04:15 10,6 C 67 % 1012,5 hPa 0,0 l/m 9,1 km/h (2 Bft) S-SW 210 0 min 0 W/m 4,7 C 8,8 C 9,1 km/h (2 Bft)
22.04.2013 04:30 10,8 C 68 % 1012,5 hPa 0,0 l/m 9,7 km/h (2 Bft) W-SW 255 0 min 0 W/m 5,1 C 8,6 C 9,7 km/h (2 Bft)
22.04.2013 04:45 10,8 C 71 % 1012,5 hPa 0,0 l/m 8,8 km/h (2 Bft) W 260 0 min 0 W/m 5,8 C 9,2 C 8,8 km/h (2 Bft)
22.04.2013 05:00 10,5 C 74 % 1012,5 hPa 0,0 l/m 13,5 km/h (3 Bft) W 270 0 min 0 W/m 6,1 C 6,4 C 13,5 km/h (3 Bft)
22.04.2013 05:15 10,1 C 76 % 1012,5 hPa 0,0 l/m 13,5 km/h (3 Bft) W 265 0 min 0 W/m 6,1 C 5,9 C 13,5 km/h (3 Bft)
22.04.2013 05:30 9,7 C 78 % 1012,5 hPa 0,0 l/m 12,3 km/h (2 Bft) W 260 0 min 0 W/m 6,1 C 6,0 C 12,3 km/h (2 Bft)
22.04.2013 05:45 9,5 C 79 % 1012,5 hPa 0,0 l/m 12,9 km/h (3 Bft) W-NW 295 0 min 0 W/m 6,0 C 5,5 C 12,9 km/h (3 Bft)
22.04.2013 06:00 9,3 C 79 % 1012,5 hPa 0,0 l/m 11,5 km/h (2 Bft) NW 315 0 min 0 W/m 5,8 C 6,0 C 11,5 km/h (2 Bft)
22.04.2013 06:15 9,2 C 79 % 1012,5 hPa 0,3 l/m 16,2 km/h (3 Bft) NW 315 0 min 0 W/m 5,8 C 3,7 C 16,2 km/h (3 Bft)
22.04.2013 06:30 9,2 C 79 % 1012,5 hPa 0,0 l/m 10,0 km/h (2 Bft) NW 310 0 min 0 W/m 5,8 C 6,7 C 10,0 km/h (2 Bft)
22.04.2013 06:45 9,0 C 79 % 1013,5 hPa 0,0 l/m 16,4 km/h (3 Bft) NW 320 0 min 0 W/m 5,6 C 3,3 C 16,4 km/h (3 Bft)
22.04.2013 07:00 8,8 C 80 % 1013,5 hPa 0,0 l/m 21,3 km/h (4 Bft) NW 325 0 min 0 W/m 5,5 C 1,3 C 21,3 km/h (4 Bft)
22.04.2013 07:15 8,5 C 79 % 1013,5 hPa 0,0 l/m 19,7 km/h (3 Bft) N-NW 345 0 min 0 W/m 5,1 C 1,5 C 19,7 km/h (3 Bft)
22.04.2013 07:30 8,4 C 76 % 1013,5 hPa 0,0 l/m 16,2 km/h (3 Bft) NW 310 0 min 0 W/m 4,4 C 2,7 C 16,2 km/h (3 Bft)
22.04.2013 07:44 8,4 C 75 % 1013,5 hPa 0,0 l/m 16,9 km/h (3 Bft) NW 325 0 min 0 W/m 4,2 C 2,4 C 16,9 km/h (3 Bft)
22.04.2013 07:59 8,4 C 74 % 1014,5 hPa 0,0 l/m 22,0 km/h (4 Bft) NW 315 0 min 0 W/m 4,0 C 0,6 C 22,0 km/h (4 Bft)
22.04.2013 08:15 8,2 C 74 % 1014,5 hPa 0,0 l/m 22,8 km/h (4 Bft) NW 325 0 min 0 W/m 3,8 C 0,0 C 22,8 km/h (4 Bft)
22.04.2013 08:30 8,1 C 74 % 1014,5 hPa 0,0 l/m 23,0 km/h (4 Bft) NW 320 0 min 0 W/m 3,8 C -0,2 C 23,0 km/h (4 Bft)
22.04.2013 08:44 8,2 C 74 % 1014,5 hPa 0,0 l/m 18,8 km/h (3 Bft) NW 325 0 min 0 W/m 3,8 C 1,4 C 18,8 km/h (3 Bft)
22.04.2013 09:00 7,9 C 74 % 1014,5 hPa 0,0 l/m 23,6 km/h (4 Bft) NW 325 0 min 0 W/m 3,6 C -0,6 C 23,6 km/h (4 Bft)
22.04.2013 09:15 7,8 C 73 % 1014,5 hPa 0,0 l/m 20,1 km/h (4 Bft) NW 320 0 min 0 W/m 3,3 C 0,4 C 20,1 km/h (4 Bft)
22.04.2013 09:30 7,9 C 74 % 1014,5 hPa 0,0 l/m 17,6 km/h (3 Bft) NW 315 0 min 0 W/m 3,6 C 1,5 C 17,6 km/h (3 Bft)
22.04.2013 09:45 8,1 C 74 % 1014,5 hPa 0,0 l/m 20,1 km/h (4 Bft) NW 320 0 min 0 W/m 3,8 C 0,8 C 20,1 km/h (4 Bft)
22.04.2013 10:00 8,1 C 74 % 1014,5 hPa 0,0 l/m 17,9 km/h (3 Bft) N-NW 330 0 min 0 W/m 3,8 C 1,6 C 17,9 km/h (3 Bft)
22.04.2013 10:15 8,2 C 72 % 1014,5 hPa 0,0 l/m 16,4 km/h (3 Bft) NW 325 0 min 0 W/m 3,5 C 2,3 C 16,4 km/h (3 Bft)
22.04.2013 10:30 9,0 C 70 % 1014,5 hPa 0,0 l/m 14,3 km/h (3 Bft) W-NW 290 0 min 0 W/m 3,8 C 4,2 C 14,3 km/h (3 Bft)
22.04.2013 10:45 9,8 C 66 % 1014,5 hPa 0,0 l/m 15,3 km/h (3 Bft) NW 305 0 min 0 W/m 3,8 C 4,8 C 15,3 km/h (3 Bft)
22.04.2013 11:00 10,5 C 62 % 1015,5 hPa 0,0 l/m 15,8 km/h (3 Bft) NW 315 0 min 0 W/m 3,5 C 5,4 C 15,8 km/h (3 Bft)
22.04.2013 11:15 11,2 C 58 % 1015,5 hPa 0,0 l/m 17,3 km/h (3 Bft) W 265 0 min 0 W/m 3,2 C 5,7 C 17,3 km/h (3 Bft)
22.04.2013 11:30 11,6 C 55 % 1015,5 hPa 0,0 l/m 18,3 km/h (3 Bft) W 275 0 min 0 W/m 2,9 C 5,9 C 18,3 km/h (3 Bft)
22.04.2013 11:45 12,0 C 50 % 1015,5 hPa 0,0 l/m 21,3 km/h (4 Bft) W 270 0 min 0 W/m 1,9 C 5,5 C 21,3 km/h (4 Bft)
22.04.2013 12:00 12,8 C 46 % 1014,5 hPa 0,0 l/m 17,5 km/h (3 Bft) W 275 0 min 0 W/m 1,5 C 7,7 C 17,5 km/h (3 Bft)
22.04.2013 12:15 12,8 C 42 % 1014,5 hPa 0,0 l/m 21,0 km/h (4 Bft) NW 320 0 min 0 W/m 0,2 C 6,6 C 21,0 km/h (4 Bft)
22.04.2013 12:30 12,7 C 44 % 1014,5 hPa 0,0 l/m 24,6 km/h (4 Bft) W 260 0 min 0 W/m 0,8 C 5,6 C 24,6 km/h (4 Bft)
22.04.2013 12:45 13,1 C 44 % 1014,5 hPa 0,0 l/m 20,7 km/h (4 Bft) W-NW 295 0 min 0 W/m 1,1 C 7,1 C 20,7 km/h (4 Bft)
22.04.2013 13:00 13,3 C 45 % 1014,5 hPa 0,0 l/m 17,4 km/h (3 Bft) NW 305 0 min 0 W/m 1,6 C 8,3 C 17,4 km/h (3 Bft)
22.04.2013 13:15 13,8 C 43 % 1014,5 hPa 0,0 l/m 19,5 km/h (3 Bft) W 265 0 min 0 W/m 1,4 C 8,3 C 19,5 km/h (3 Bft)
22.04.2013 13:30 14,2 C 38 % 1014,5 hPa 0,0 l/m 17,2 km/h (3 Bft) W 280 0 min 0 W/m 0,1 C 9,5 C 17,2 km/h (3 Bft)
22.04.2013 13:45 14,9 C 40 % 1014,5 hPa 0,0 l/m 17,1 km/h (3 Bft) W 280 0 min 0 W/m 1,4 C 10,4 C 17,1 km/h (3 Bft)
22.04.2013 14:00 15,0 C 42 % 1015,5 hPa 0,0 l/m 15,3 km/h (3 Bft) W-NW 290 0 min 0 W/m 2,2 C 11,1 C 15,3 km/h (3 Bft)
22.04.2013 14:15 15,0 C 43 % 1014,5 hPa 0,0 l/m 12,9 km/h (3 Bft) N-NW 330 0 min 0 W/m 2,5 C 11,9 C 12,9 km/h (3 Bft)
22.04.2013 14:30 15,1 C 43 % 1014,5 hPa 0,0 l/m 14,5 km/h (3 Bft) NW 310 0 min 0 W/m 2,6 C 11,5 C 14,5 km/h (3 Bft)
22.04.2013 14:45 15,6 C 41 % 1014,5 hPa 0,0 l/m 14,8 km/h (3 Bft) W-NW 290 0 min 0 W/m 2,4 C 12,0 C 14,8 km/h (3 Bft)
22.04.2013 15:00 15,8 C 42 % 1014,5 hPa 0,0 l/m 15,1 km/h (3 Bft) W 270 0 min 0 W/m 2,9 C 12,1 C 15,1 km/h (3 Bft)
22.04.2013 15:15 15,8 C 42 % 1014,5 hPa 0,0 l/m 12,7 km/h (3 Bft) W-NW 295 0 min 0 W/m 2,9 C 12,9 C 12,7 km/h (3 Bft)
22.04.2013 15:30 15,6 C 43 % 1014,5 hPa 0,0 l/m 15,5 km/h (3 Bft) W-NW 300 0 min 0 W/m 3,1 C 11,8 C 15,5 km/h (3 Bft)
22.04.2013 15:45 15,6 C 41 % 1014,5 hPa 0,0 l/m 14,8 km/h (3 Bft) W-NW 300 0 min 0 W/m 2,4 C 12,0 C 14,8 km/h (3 Bft)
22.04.2013 16:00 15,2 C 44 % 1014,5 hPa 0,0 l/m 14,3 km/h (3 Bft) N-NW 330 0 min 0 W/m 3,0 C 11,7 C 14,3 km/h (3 Bft)
22.04.2013 16:15 14,3 C 44 % 1014,5 hPa 0,0 l/m 16,1 km/h (3 Bft) N 350 0 min 0 W/m 2,2 C 10,0 C 16,1 km/h (3 Bft)
22.04.2013 16:30 14,6 C 46 % 1014,5 hPa 0,0 l/m 13,2 km/h (3 Bft) NW 320 0 min 0 W/m 3,1 C 11,3 C 13,2 km/h (3 Bft)
22.04.2013 16:45 14,7 C 47 % 1014,5 hPa 0,0 l/m 8,7 km/h (2 Bft) W 280 0 min 0 W/m 3,5 C 13,4 C 8,7 km/h (2 Bft)
22.04.2013 17:00 14,9 C 47 % 1013,5 hPa 0,0 l/m 10,0 km/h (2 Bft) W-NW 300 0 min 0 W/m 3,7 C 13,0 C 10,0 km/h (2 Bft)
22.04.2013 17:15 14,5 C 47 % 1013,5 hPa 0,0 l/m 13,1 km/h (3 Bft) NW 315 0 min 0 W/m 3,3 C 11,3 C 13,1 km/h (3 Bft)
22.04.2013 17:30 14,4 C 49 % 1013,5 hPa 0,0 l/m 11,6 km/h (2 Bft) NW 310 0 min 0 W/m 3,8 C 11,7 C 11,6 km/h (2 Bft)
22.04.2013 17:45 14,4 C 49 % 1013,5 hPa 0,0 l/m 12,7 km/h (3 Bft) W 275 0 min 0 W/m 3,8 C 11,3 C 12,7 km/h (3 Bft)
22.04.2013 18:00 14,0 C 52 % 1013,5 hPa 0,0 l/m 16,0 km/h (3 Bft) NW 310 0 min 0 W/m 4,3 C 9,6 C 16,0 km/h (3 Bft)
22.04.2013 18:15 13,6 C 55 % 1014,5 hPa 0,0 l/m 20,9 km/h (4 Bft) NW 315 0 min 0 W/m 4,7 C 7,7 C 20,9 km/h (4 Bft)
22.04.2013 18:30 13,3 C 56 % 1013,5 hPa 0,0 l/m 20,4 km/h (4 Bft) NW 305 0 min 0 W/m 4,7 C 7,4 C 20,4 km/h (4 Bft)
22.04.2013 18:45 13,1 C 57 % 1013,5 hPa 0,0 l/m 14,4 km/h (3 Bft) W-NW 295 0 min 0 W/m 4,8 C 9,1 C 14,4 km/h (3 Bft)
22.04.2013 19:00 12,8 C 56 % 1013,5 hPa 0,0 l/m 18,0 km/h (3 Bft) W-NW 295 0 min 0 W/m 4,2 C 7,5 C 18,0 km/h (3 Bft)
22.04.2013 19:15 12,3 C 57 % 1013,5 hPa 0,0 l/m 14,8 km/h (3 Bft) W-NW 285 0 min 0 W/m 4,0 C 8,0 C 14,8 km/h (3 Bft)
22.04.2013 19:30 12,0 C 58 % 1013,5 hPa 0,0 l/m 14,7 km/h (3 Bft) NW 310 0 min 0 W/m 4,0 C 7,7 C 14,7 km/h (3 Bft)
22.04.2013 19:45 11,9 C 60 % 1013,5 hPa 0,0 l/m 12,9 km/h (3 Bft) NW 305 0 min 0 W/m 4,4 C 8,3 C 12,9 km/h (3 Bft)
22.04.2013 20:00 11,7 C 60 % 1013,5 hPa 0,0 l/m 11,7 km/h (2 Bft) W-NW 300 0 min 0 W/m 4,2 C 8,6 C 11,7 km/h (2 Bft)
22.04.2013 20:15 11,6 C 61 % 1013,5 hPa 0,0 l/m 7,8 km/h (2 Bft) W-NW 295 0 min 0 W/m 4,3 C 10,7 C 7,8 km/h (2 Bft)
22.04.2013 20:30 11,4 C 61 % 1013,5 hPa 0,0 l/m 9,2 km/h (2 Bft) W-NW 290 0 min 0 W/m 4,2 C 9,6 C 9,2 km/h (2 Bft)
22.04.2013 20:45 11,2 C 61 % 1013,5 hPa 0,0 l/m 8,4 km/h (2 Bft) NW 305 0 min 0 W/m 4,0 C 9,9 C 8,4 km/h (2 Bft)
22.04.2013 21:00 11,1 C 61 % 1013,5 hPa 0,0 l/m 5,4 km/h (2 Bft) W 280 0 min 0 W/m 3,9 C 11,1 C 5,4 km/h (2 Bft)
22.04.2013 21:15 11,1 C 62 % 1013,5 hPa 0,0 l/m 7,4 km/h (2 Bft) W-SW 245 0 min 0 W/m 4,1 C 10,4 C 7,4 km/h (2 Bft)
22.04.2013 21:30 10,9 C 63 % 1013,5 hPa 0,0 l/m 4,7 km/h (1 Bft) W 260 0 min 0 W/m 4,1 C 10,9 C 4,7 km/h (1 Bft)
22.04.2013 21:45 10,8 C 63 % 1013,5 hPa 0,0 l/m 10,5 km/h (2 Bft) NW 315 0 min 0 W/m 4,0 C 8,2 C 10,5 km/h (2 Bft)
22.04.2013 22:01 10,7 C 64 % 1013,5 hPa 0,0 l/m 10,1 km/h (2 Bft) W 270 0 min 0 W/m 4,2 C 8,3 C 10,1 km/h (2 Bft)
22.04.2013 22:15 10,4 C 65 % 1013,5 hPa 0,0 l/m 6,8 km/h (2 Bft) W 265 0 min 0 W/m 4,1 C 10,1 C 6,8 km/h (2 Bft)
22.04.2013 22:30 10,3 C 65 % 1013,5 hPa 0,0 l/m 5,0 km/h (1 Bft) W 260 0 min 0 W/m 4,0 C 10,3 C 5,0 km/h (1 Bft)
22.04.2013 22:45 10,3 C 66 % 1013,5 hPa 0,0 l/m 5,4 km/h (2 Bft) W 260 0 min 0 W/m 4,2 C 10,3 C 5,4 km/h (2 Bft)
22.04.2013 23:01 10,0 C 66 % 1013,5 hPa 0,0 l/m 5,2 km/h (1 Bft) W 260 0 min 0 W/m 3,9 C 10,0 C 5,2 km/h (1 Bft)
22.04.2013 23:15 9,8 C 67 % 1013,5 hPa 0,0 l/m 5,3 km/h (1 Bft) W 260 0 min 0 W/m 4,0 C 9,8 C 5,3 km/h (1 Bft)
22.04.2013 23:30 9,5 C 67 % 1013,5 hPa 0,0 l/m 4,8 km/h (1 Bft) W 260 0 min 0 W/m 3,7 C 9,5 C 4,8 km/h (1 Bft)
22.04.2013 23:46 9,4 C 69 % 1013,5 hPa 0,0 l/m 6,1 km/h (2 Bft) W-SW 255 0 min 0 W/m 4,0 C 9,4 C 6,1 km/h (2 Bft)
_ Min-Zeit 09:15 13:30 02:30 - 21:30 - - - - 13:30 09:00 21:30
Minimum _ 7,8 C 38 % 1012,5 hPa - 4,7 km/h (1 Bft) - - - - 0,1 C -0,6 C 4,7 km/h (1 Bft)
_ Max-Zeit 15:00 07:00 11:00 06:15 12:30 - - 00:00 00:00 05:00 16:45 12:30
Maximum _ 15,8 C 80 % 1015,5 hPa 0,3 l/m 24,6 km/h
W (4 Bft)
- - 0 min 0 W/m 6,1 C 13,4 C 24,6 km/h
W (4 Bft)
Durchschnitt _ 11,4 C 61 % 1013,8 hPa #0,3 l/m 13,0 km/h (3 Bft) NW - #0 min. 0 W/m 3,9 C 8,0 C 13,0 km/h (3 Bft)
copyright by Holger Just